createdAt,value
2022-12-04T00:01:27.375Z,17.80
2022-12-04T00:03:30.298Z,18.53
2022-12-04T00:05:33.261Z,19.53
2022-12-04T00:07:36.335Z,18.93
2022-12-04T00:09:39.208Z,18.37
2022-12-04T00:11:42.150Z,18.40
2022-12-04T00:13:46.417Z,18.90
2022-12-04T00:15:49.385Z,18.60
2022-12-04T00:17:52.422Z,19.77
2022-12-04T00:19:55.714Z,18.43
2022-12-04T00:21:58.979Z,19.17
2022-12-04T00:24:02.145Z,17.87
2022-12-04T00:26:07.184Z,18.60
2022-12-04T00:28:10.411Z,19.80
2022-12-04T00:30:15.342Z,19.27
2022-12-04T00:32:18.334Z,19.90
2022-12-04T00:34:22.808Z,19.03
2022-12-04T00:36:28.591Z,18.50
2022-12-04T00:38:31.642Z,20.03
2022-12-04T00:40:34.572Z,18.70
2022-12-04T00:42:37.453Z,17.53
2022-12-04T00:44:40.301Z,17.17
2022-12-04T00:46:44.524Z,18.27
2022-12-04T00:48:49.005Z,18.47
2022-12-04T00:50:52.052Z,18.57
2022-12-04T00:52:56.231Z,17.83
2022-12-04T00:54:59.072Z,21.00
2022-12-04T00:57:01.977Z,20.23
2022-12-04T00:59:04.897Z,19.03
2022-12-04T01:01:10.481Z,19.13
2022-12-04T01:03:14.931Z,19.63
2022-12-04T01:05:18.079Z,18.80
2022-12-04T01:07:20.941Z,19.47
2022-12-04T01:09:23.824Z,18.70
2022-12-04T01:11:28.053Z,19.40
2022-12-04T01:13:30.925Z,19.37
2022-12-04T01:15:34.357Z,20.57
2022-12-04T01:17:37.217Z,19.70
2022-12-04T01:19:41.452Z,20.40
2022-12-04T01:21:44.457Z,21.03
2022-12-04T01:23:47.473Z,21.53
2022-12-04T01:25:55.326Z,20.37
2022-12-04T01:27:58.461Z,20.87
2022-12-04T01:30:01.411Z,19.77
2022-12-04T01:32:04.597Z,19.90
2022-12-04T01:34:07.541Z,18.87
2022-12-04T01:36:13.820Z,20.80
2022-12-04T01:38:16.658Z,18.43
2022-12-04T01:40:19.547Z,19.50
2022-12-04T01:42:22.476Z,19.13
2022-12-04T01:44:27.031Z,20.00
2022-12-04T01:46:30.005Z,20.03
2022-12-04T01:48:35.214Z,19.97
2022-12-04T01:50:38.459Z,20.97
2022-12-04T01:52:43.095Z,22.27
2022-12-04T01:54:48.821Z,20.23
2022-12-04T01:56:55.641Z,21.67
2022-12-04T01:59:02.239Z,21.33
2022-12-04T02:01:09.184Z,20.43
2022-12-04T02:03:14.207Z,21.13
2022-12-04T02:05:20.246Z,22.57
2022-12-04T02:07:23.403Z,22.63
2022-12-04T02:09:28.913Z,22.40
2022-12-04T02:11:40.058Z,23.33
2022-12-04T02:13:52.169Z,20.47
2022-12-04T02:16:02.849Z,22.07
2022-12-04T02:18:13.695Z,21.27
2022-12-04T02:20:33.960Z,21.03
2022-12-04T02:23:02.977Z,20.80
2022-12-04T02:25:14.411Z,19.67
2022-12-04T02:27:35.266Z,21.33
2022-12-04T02:29:45.032Z,21.13
2022-12-04T02:31:52.447Z,21.27
2022-12-04T02:34:01.634Z,20.27
2022-12-04T02:36:11.094Z,20.00
2022-12-04T02:38:21.345Z,20.27
2022-12-04T02:40:29.998Z,18.83
2022-12-04T02:42:40.166Z,20.03
2022-12-04T02:44:50.489Z,20.63
2022-12-04T02:46:58.125Z,19.70
2022-12-04T02:49:04.998Z,19.30
2022-12-04T02:51:11.038Z,19.50
2022-12-04T02:53:18.642Z,20.13
2022-12-04T02:55:24.992Z,20.83
2022-12-04T02:57:32.737Z,20.30
2022-12-04T02:59:39.101Z,20.40
2022-12-04T03:01:47.314Z,21.20
2022-12-04T03:03:54.759Z,20.67
2022-12-04T03:06:02.957Z,21.83
2022-12-04T03:08:09.349Z,20.13
2022-12-04T03:10:16.973Z,21.57
2022-12-04T03:12:22.989Z,21.30
2022-12-04T03:14:29.649Z,21.43
2022-12-04T03:16:36.847Z,21.97
2022-12-04T03:18:44.623Z,21.37
2022-12-04T03:20:50.151Z,20.03
2022-12-04T03:22:57.694Z,20.37
2022-12-04T03:25:01.307Z,21.20
2022-12-04T03:27:11.630Z,20.40
2022-12-04T03:29:20.603Z,21.17
2022-12-04T03:31:28.445Z,22.40
2022-12-04T03:33:37.795Z,19.97
2022-12-04T03:35:47.472Z,21.23
2022-12-04T03:37:57.917Z,20.10
2022-12-04T03:40:07.273Z,21.50
2022-12-04T03:42:16.033Z,18.07
2022-12-04T03:44:23.419Z,20.07
2022-12-04T03:46:30.747Z,19.87
2022-12-04T03:48:39.602Z,20.93
2022-12-04T03:50:48.901Z,19.00
2022-12-04T03:52:59.439Z,20.37
2022-12-04T03:55:08.616Z,21.00
2022-12-04T03:57:15.925Z,20.07
2022-12-04T03:59:23.543Z,20.37
2022-12-04T04:01:31.327Z,20.10
2022-12-04T04:03:37.894Z,21.27
2022-12-04T04:05:46.458Z,21.37
2022-12-04T04:07:52.413Z,21.07
2022-12-04T04:09:59.513Z,21.37
2022-12-04T04:12:06.330Z,21.40
2022-12-04T04:14:32.819Z,21.50
2022-12-04T04:16:55.523Z,21.10
2022-12-04T04:19:18.899Z,20.50
2022-12-04T04:21:44.326Z,19.40
2022-12-04T04:24:08.873Z,19.60
2022-12-04T04:26:14.358Z,20.57
2022-12-04T04:28:32.013Z,19.83
2022-12-04T04:30:36.086Z,21.03
2022-12-04T04:32:43.839Z,20.50
2022-12-04T04:34:54.957Z,22.57
2022-12-04T04:37:09.472Z,20.80
2022-12-04T04:39:20.327Z,21.17
2022-12-04T04:41:29.849Z,21.43
2022-12-04T04:43:38.083Z,21.53
2022-12-04T04:45:45.718Z,21.03
2022-12-04T04:47:52.833Z,20.97
2022-12-04T04:49:57.825Z,22.60
2022-12-04T04:52:03.068Z,22.57
2022-12-04T04:54:09.596Z,22.73
2022-12-04T04:56:13.296Z,21.43
2022-12-04T04:58:18.385Z,22.33
2022-12-04T05:00:23.798Z,22.17
2022-12-04T05:02:27.548Z,24.70
2022-12-04T05:04:30.438Z,23.40
2022-12-04T05:06:33.529Z,22.40
2022-12-04T05:08:37.750Z,23.30
2022-12-04T05:10:40.589Z,25.20
2022-12-04T05:12:43.487Z,22.13
2022-12-04T05:14:48.234Z,24.03
2022-12-04T05:16:51.179Z,23.90
2022-12-04T05:19:11.328Z,22.13
2022-12-04T05:21:17.085Z,22.43
2022-12-04T05:23:20.046Z,22.73
2022-12-04T05:25:24.667Z,24.40
2022-12-04T05:27:29.151Z,21.43
2022-12-04T05:29:35.838Z,20.93
2022-12-04T05:31:40.072Z,21.73
2022-12-04T05:33:43.042Z,23.07
2022-12-04T05:35:45.917Z,22.07
2022-12-04T05:37:48.839Z,22.10
2022-12-04T05:39:51.722Z,22.03
2022-12-04T05:41:56.120Z,21.43
2022-12-04T05:43:59.161Z,20.93
2022-12-04T05:46:02.226Z,20.73
2022-12-04T05:48:05.160Z,21.17
2022-12-04T05:50:10.147Z,21.57
2022-12-04T05:52:13.092Z,21.20
2022-12-04T05:54:15.954Z,22.63
2022-12-04T05:56:18.892Z,23.17
2022-12-04T05:58:23.109Z,22.93
2022-12-04T06:00:26.092Z,22.77
2022-12-04T06:02:29.082Z,21.87
2022-12-04T06:04:32.044Z,22.03
2022-12-04T06:06:35.174Z,22.57
2022-12-04T06:08:38.019Z,22.63
2022-12-04T06:10:41.085Z,21.43
2022-12-04T06:12:43.983Z,21.73
2022-12-04T06:14:48.265Z,23.67
2022-12-04T06:16:51.192Z,21.70
2022-12-04T06:18:55.819Z,22.73
2022-12-04T06:20:59.164Z,23.27
2022-12-04T06:23:02.274Z,21.43
2022-12-04T06:25:05.752Z,22.53
2022-12-04T06:27:27.122Z,23.17
2022-12-04T06:29:31.324Z,22.17
2022-12-04T06:31:36.253Z,22.20
2022-12-04T06:33:39.994Z,21.17
2022-12-04T06:35:42.960Z,21.63
2022-12-04T06:37:45.899Z,20.83
2022-12-04T06:39:48.834Z,21.03
2022-12-04T06:41:51.715Z,21.23
2022-12-04T06:43:55.103Z,22.47
2022-12-04T06:46:01.519Z,22.00
2022-12-04T06:48:06.234Z,21.30
2022-12-04T06:50:09.950Z,19.33
2022-12-04T06:52:12.872Z,21.67
2022-12-04T06:54:16.875Z,19.50
2022-12-04T06:56:22.772Z,19.27
2022-12-04T06:58:26.035Z,19.87
2022-12-04T07:00:28.960Z,20.80
2022-12-04T07:02:31.883Z,19.73
2022-12-04T07:04:36.173Z,22.73
2022-12-04T07:06:40.699Z,20.63
2022-12-04T07:08:44.132Z,20.33
2022-12-04T07:10:46.986Z,21.33
2022-12-04T07:12:49.837Z,20.43
2022-12-04T07:14:52.711Z,21.23
2022-12-04T07:16:55.584Z,21.47
2022-12-04T07:18:58.679Z,21.53
2022-12-04T07:21:07.110Z,22.50
2022-12-04T07:23:10.074Z,22.90
2022-12-04T07:25:13.080Z,21.57
2022-12-04T07:27:16.005Z,20.10
2022-12-04T07:29:18.884Z,21.17
2022-12-04T07:31:23.734Z,22.50
2022-12-04T07:33:26.731Z,21.43
2022-12-04T07:35:29.638Z,21.47
2022-12-04T07:37:36.886Z,19.60
2022-12-04T07:39:39.793Z,19.70
2022-12-04T07:41:42.640Z,19.20
2022-12-04T07:43:45.708Z,19.27
2022-12-04T07:45:48.752Z,19.53
2022-12-04T07:47:51.663Z,20.63
2022-12-04T07:49:54.768Z,19.67
2022-12-04T07:51:57.850Z,21.00
2022-12-04T07:54:04.038Z,19.37
2022-12-04T07:56:08.331Z,22.63
2022-12-04T07:58:11.219Z,21.53
2022-12-04T08:00:15.895Z,20.73
2022-12-04T08:02:18.740Z,21.70
2022-12-04T08:04:21.689Z,19.67
2022-12-04T08:06:26.207Z,18.30
2022-12-04T08:08:29.700Z,19.90
2022-12-04T08:10:34.028Z,19.27
2022-12-04T08:12:37.092Z,20.07
2022-12-04T08:14:40.197Z,19.23
2022-12-04T08:16:47.119Z,17.30
2022-12-04T08:18:54.838Z,17.00
2022-12-04T08:21:04.403Z,17.60
2022-12-04T08:23:07.407Z,18.83
2022-12-04T08:25:10.669Z,17.17
2022-12-04T08:27:15.011Z,17.53
2022-12-04T08:29:18.090Z,17.27
2022-12-04T08:31:23.136Z,17.83
2022-12-04T08:33:26.121Z,17.10
2022-12-04T08:35:30.112Z,18.43
2022-12-04T08:37:32.988Z,18.27
2022-12-04T08:39:35.944Z,17.43
2022-12-04T08:41:38.865Z,18.13
2022-12-04T08:43:43.404Z,19.10
2022-12-04T08:45:46.379Z,19.50
2022-12-04T08:47:52.567Z,17.20
2022-12-04T08:49:55.937Z,17.03
2022-12-04T08:51:59.039Z,17.07
2022-12-04T08:54:03.799Z,18.17
2022-12-04T08:56:07.363Z,15.17
2022-12-04T08:58:10.260Z,17.60
2022-12-04T09:00:15.511Z,17.20
2022-12-04T09:02:18.418Z,17.43
2022-12-04T09:04:21.308Z,17.63
2022-12-04T09:06:25.006Z,17.07
2022-12-04T09:08:28.073Z,17.23
2022-12-04T09:10:31.092Z,16.83
2022-12-04T09:12:34.036Z,17.47
2022-12-04T09:14:37.263Z,16.33
2022-12-04T09:16:41.616Z,17.10
2022-12-04T09:18:44.883Z,17.43
2022-12-04T09:20:56.700Z,16.50
2022-12-04T09:23:04.646Z,16.20
2022-12-04T09:25:09.027Z,16.17
2022-12-04T09:27:14.955Z,15.80
2022-12-04T09:29:18.147Z,16.63
2022-12-04T09:31:22.404Z,15.70
2022-12-04T09:33:26.904Z,16.27
2022-12-04T09:35:30.130Z,16.07
2022-12-04T09:37:33.752Z,16.60
2022-12-04T09:39:36.976Z,17.13
2022-12-04T09:42:03.887Z,16.60
2022-12-04T09:44:11.732Z,17.20
2022-12-04T09:46:20.603Z,16.33
2022-12-04T09:48:32.902Z,16.67
2022-12-04T09:50:40.475Z,15.83
2022-12-04T09:52:51.517Z,16.30
2022-12-04T09:54:56.774Z,16.50
2022-12-04T09:57:03.823Z,16.40
2022-12-04T09:59:13.824Z,16.37
2022-12-04T10:01:22.672Z,15.97
2022-12-04T10:03:29.254Z,16.63
2022-12-04T10:05:44.316Z,16.13
2022-12-04T10:07:56.685Z,16.00
2022-12-04T10:10:05.147Z,16.30
2022-12-04T10:12:20.396Z,16.67
2022-12-04T10:14:38.373Z,14.97
2022-12-04T10:16:57.858Z,16.17
2022-12-04T10:19:07.626Z,15.77
2022-12-04T10:21:26.892Z,16.33
2022-12-04T10:23:42.296Z,17.47
2022-12-04T10:25:45.324Z,17.37
2022-12-04T10:27:51.992Z,18.13
2022-12-04T10:29:59.979Z,17.40
2022-12-04T10:32:07.858Z,16.57
2022-12-04T10:34:17.597Z,16.93
2022-12-04T10:36:25.446Z,19.27
2022-12-04T10:38:36.028Z,16.20
2022-12-04T10:40:46.493Z,17.37
2022-12-04T10:42:56.792Z,18.63
2022-12-04T10:44:59.848Z,18.77
2022-12-04T10:47:06.088Z,19.80
2022-12-04T10:49:18.562Z,18.50
2022-12-04T10:51:24.084Z,17.77
2022-12-04T10:53:32.033Z,19.03
2022-12-04T10:55:38.259Z,18.67
2022-12-04T10:57:43.326Z,18.17
2022-12-04T10:59:53.554Z,18.37
2022-12-04T11:02:06.933Z,19.43
2022-12-04T11:04:20.057Z,19.50
2022-12-04T11:06:28.338Z,19.20
2022-12-04T11:08:36.432Z,19.40
2022-12-04T11:10:41.830Z,21.40
2022-12-04T11:12:55.842Z,20.37
2022-12-04T11:15:12.843Z,23.00
2022-12-04T11:17:18.720Z,21.03
2022-12-04T11:19:24.051Z,21.23
2022-12-04T11:21:30.722Z,21.53
2022-12-04T11:23:35.672Z,22.43
2022-12-04T11:25:45.884Z,21.47
2022-12-04T11:27:51.179Z,20.37
2022-12-04T11:29:55.220Z,21.37
2022-12-04T11:32:02.823Z,19.07
2022-12-04T11:34:18.697Z,19.80
2022-12-04T11:36:24.509Z,19.43
2022-12-04T11:38:30.946Z,19.33
2022-12-04T11:40:34.438Z,19.13
2022-12-04T11:42:37.269Z,19.03
2022-12-04T11:44:41.219Z,20.03
2022-12-04T11:46:54.584Z,18.33
2022-12-04T11:48:57.551Z,19.63
2022-12-04T11:51:08.444Z,19.40
2022-12-04T11:53:18.641Z,17.77
2022-12-04T11:55:29.314Z,17.27
2022-12-04T11:57:40.756Z,18.53
2022-12-04T11:59:58.932Z,21.60
2022-12-04T12:02:15.888Z,21.00
2022-12-04T12:04:51.042Z,21.17
2022-12-04T12:07:04.574Z,19.77
2022-12-04T12:09:19.189Z,21.33
2022-12-04T12:11:28.174Z,35.47
2022-12-04T12:13:40.536Z,24.60
2022-12-04T12:15:52.800Z,21.30
2022-12-04T12:18:12.993Z,20.13
2022-12-04T12:20:22.188Z,20.77
2022-12-04T12:22:37.497Z,20.73
2022-12-04T12:24:51.533Z,20.37
2022-12-04T12:27:16.687Z,21.97
2022-12-04T12:29:35.840Z,19.73
2022-12-04T12:31:55.683Z,20.90
2022-12-04T12:34:03.334Z,20.40
2022-12-04T12:36:10.241Z,20.10
2022-12-04T12:38:18.425Z,19.30
2022-12-04T12:40:31.553Z,18.87
2022-12-04T12:42:41.294Z,19.10
2022-12-04T12:44:51.719Z,20.43
2022-12-04T12:46:57.711Z,20.40
2022-12-04T12:49:03.633Z,20.20
2022-12-04T12:51:29.495Z,19.63
2022-12-04T12:53:37.628Z,21.97
2022-12-04T12:55:45.514Z,21.17
2022-12-04T12:57:59.768Z,20.43
2022-12-04T13:00:07.886Z,20.93
2022-12-04T13:02:22.061Z,20.47
2022-12-04T13:04:33.168Z,21.60
2022-12-04T13:06:40.222Z,22.07
2022-12-04T13:08:49.486Z,21.57
2022-12-04T13:11:03.066Z,22.20
2022-12-04T13:13:12.722Z,20.20
2022-12-04T13:15:17.074Z,20.80
2022-12-04T13:17:26.516Z,21.77
2022-12-04T13:19:33.420Z,20.67
2022-12-04T13:21:41.317Z,22.07
2022-12-04T13:23:58.060Z,20.90
2022-12-04T13:26:08.033Z,19.33
2022-12-04T13:28:25.275Z,22.13
2022-12-04T13:30:33.176Z,20.33
2022-12-04T13:33:02.391Z,20.93
2022-12-04T13:35:10.099Z,21.30
2022-12-04T13:37:34.607Z,21.40
2022-12-04T13:40:15.783Z,18.30
2022-12-04T13:42:24.843Z,18.10
2022-12-04T13:44:30.831Z,19.10
2022-12-04T13:46:37.012Z,18.63
2022-12-04T13:48:42.068Z,19.53
2022-12-04T13:50:44.975Z,19.60
2022-12-04T13:52:49.414Z,20.50
2022-12-04T13:54:58.319Z,19.43
2022-12-04T13:57:23.184Z,19.27
2022-12-04T13:59:38.499Z,18.10
2022-12-04T14:01:46.306Z,19.13
2022-12-04T14:03:51.574Z,19.00
2022-12-04T14:05:54.758Z,17.93
2022-12-04T14:08:08.067Z,18.13
2022-12-04T14:10:28.919Z,20.70
2022-12-04T14:12:34.837Z,20.50
2022-12-04T14:14:43.608Z,19.50
2022-12-04T14:16:49.821Z,19.57
2022-12-04T14:18:56.149Z,18.03
2022-12-04T14:21:04.240Z,18.97
2022-12-04T14:23:26.357Z,18.83
2022-12-04T14:25:39.368Z,18.47
2022-12-04T14:27:45.717Z,18.67
2022-12-04T14:29:55.528Z,20.50
2022-12-04T14:32:01.852Z,19.73
2022-12-04T14:34:23.128Z,19.47
2022-12-04T14:36:28.090Z,18.83
2022-12-04T14:38:31.191Z,19.27
2022-12-04T14:40:40.024Z,19.57
2022-12-04T14:42:43.451Z,19.87
2022-12-04T14:44:47.685Z,19.13
2022-12-04T14:46:53.991Z,20.73
2022-12-04T14:49:04.048Z,21.37
2022-12-04T14:51:15.665Z,20.80
2022-12-04T14:53:32.130Z,23.93
2022-12-04T14:55:44.319Z,24.80
2022-12-04T14:57:54.074Z,24.40
2022-12-04T14:59:57.573Z,22.70
2022-12-04T15:02:01.927Z,22.13
2022-12-04T15:04:14.519Z,22.57
2022-12-04T15:06:22.707Z,22.47
2022-12-04T15:08:25.654Z,20.43
2022-12-04T15:10:48.258Z,25.13
2022-12-04T15:12:53.942Z,21.10
2022-12-04T15:15:02.274Z,19.43
2022-12-04T15:17:06.767Z,19.70
2022-12-04T15:19:17.999Z,18.57
2022-12-04T15:21:21.060Z,17.97
2022-12-04T15:23:30.584Z,19.53
2022-12-04T15:25:41.218Z,19.17
2022-12-04T15:27:44.290Z,18.00
2022-12-04T15:29:48.409Z,19.07
2022-12-04T15:31:57.490Z,18.57
2022-12-04T15:34:04.028Z,18.57
2022-12-04T15:36:13.022Z,19.53
2022-12-04T15:38:16.278Z,20.93
2022-12-04T15:40:23.023Z,20.33
2022-12-04T15:42:29.534Z,20.03
2022-12-04T15:44:34.291Z,22.93
2022-12-04T15:46:38.620Z,21.20
2022-12-04T15:48:46.335Z,21.70
2022-12-04T15:50:58.936Z,22.10
2022-12-04T15:53:07.546Z,22.47
2022-12-04T15:55:16.739Z,21.53
2022-12-04T15:57:29.842Z,22.27
2022-12-04T15:59:35.784Z,23.37
2022-12-04T16:01:40.700Z,22.63
2022-12-04T16:03:48.588Z,22.23
2022-12-04T16:05:51.645Z,21.47
2022-12-04T16:07:58.522Z,23.13
2022-12-04T16:10:04.212Z,22.60
2022-12-04T16:12:18.811Z,19.93
2022-12-04T16:14:21.648Z,21.63
2022-12-04T16:16:25.804Z,20.87
2022-12-04T16:18:29.607Z,22.63
2022-12-04T16:20:32.788Z,21.37
2022-12-04T16:22:35.687Z,20.83
2022-12-04T16:24:40.019Z,22.07
2022-12-04T16:26:43.018Z,19.50
2022-12-04T16:28:46.609Z,19.83
2022-12-04T16:30:52.606Z,18.87
2022-12-04T16:32:55.670Z,19.83
2022-12-04T16:34:59.016Z,19.70
2022-12-04T16:37:02.644Z,19.43
2022-12-04T16:39:05.670Z,21.20
2022-12-04T16:41:14.904Z,18.57
2022-12-04T16:43:18.585Z,20.07
2022-12-04T16:45:25.839Z,19.60
2022-12-04T16:47:29.087Z,19.17
2022-12-04T16:49:31.959Z,19.50
2022-12-04T16:51:37.326Z,20.03
2022-12-04T16:53:41.503Z,18.53
2022-12-04T16:55:46.363Z,18.60
2022-12-04T16:57:51.722Z,19.10
2022-12-04T16:59:54.884Z,18.23
2022-12-04T17:01:59.589Z,18.53
2022-12-04T17:04:02.672Z,17.07
2022-12-04T17:06:05.721Z,17.63
2022-12-04T17:08:08.791Z,17.33
2022-12-04T17:10:12.763Z,18.70
2022-12-04T17:12:15.654Z,17.40
2022-12-04T17:14:19.859Z,17.17
2022-12-04T17:16:24.657Z,17.17
2022-12-04T17:18:27.951Z,18.33
2022-12-04T17:20:31.668Z,18.13
2022-12-04T17:22:34.609Z,18.03
2022-12-04T17:24:43.582Z,19.13
2022-12-04T17:26:50.187Z,17.63
2022-12-04T17:28:53.160Z,19.30
2022-12-04T17:30:57.552Z,18.43
2022-12-04T17:33:01.280Z,19.03
2022-12-04T17:35:06.031Z,18.93
2022-12-04T17:37:08.912Z,17.93
2022-12-04T17:39:13.451Z,19.47
2022-12-04T17:41:16.888Z,19.77
2022-12-04T17:43:22.213Z,21.23
2022-12-04T17:45:25.271Z,19.20
2022-12-04T17:47:29.750Z,17.80
2022-12-04T17:49:32.692Z,19.43
2022-12-04T17:51:36.096Z,18.63
2022-12-04T17:53:39.844Z,18.17
2022-12-04T17:55:42.967Z,19.73
2022-12-04T17:57:45.846Z,17.73
2022-12-04T17:59:49.040Z,17.47
2022-12-04T18:01:51.940Z,17.30
2022-12-04T18:03:57.961Z,16.10
2022-12-04T18:06:01.441Z,16.60
2022-12-04T18:08:04.428Z,16.87
2022-12-04T18:10:08.617Z,16.97
2022-12-04T18:12:12.188Z,15.70
2022-12-04T18:14:17.259Z,18.20
2022-12-04T18:16:20.250Z,16.80
2022-12-04T18:18:23.103Z,17.10
2022-12-04T18:20:27.374Z,17.90
2022-12-04T18:22:30.282Z,18.33
2022-12-04T18:24:33.814Z,18.10
2022-12-04T18:26:38.753Z,17.73
2022-12-04T18:28:42.292Z,18.07
2022-12-04T18:30:45.158Z,18.23
2022-12-04T18:32:48.127Z,18.07
2022-12-04T18:34:51.061Z,19.03
2022-12-04T18:36:55.329Z,17.60
2022-12-04T18:38:59.784Z,18.00
2022-12-04T18:41:03.815Z,18.13
2022-12-04T18:43:06.741Z,19.37
2022-12-04T18:45:10.933Z,18.63
2022-12-04T18:47:13.779Z,17.77
2022-12-04T18:49:16.802Z,16.73
2022-12-04T18:51:23.401Z,17.70
2022-12-04T18:53:27.710Z,17.30
2022-12-04T18:55:30.730Z,17.50
2022-12-04T18:57:33.752Z,16.60
2022-12-04T18:59:37.537Z,17.43
2022-12-04T19:01:41.371Z,15.87
2022-12-04T19:03:44.360Z,16.63
2022-12-04T19:05:50.974Z,18.43
2022-12-04T19:07:53.986Z,17.67
2022-12-04T19:10:13.521Z,17.50
2022-12-04T19:12:16.929Z,17.57
2022-12-04T19:14:23.704Z,17.07
2022-12-04T19:16:26.881Z,19.13
2022-12-04T19:18:30.932Z,18.53
2022-12-04T19:20:33.874Z,18.20
2022-12-04T19:22:36.809Z,18.10
2022-12-04T19:24:39.741Z,17.80
2022-12-04T19:26:44.991Z,17.93
2022-12-04T19:28:48.066Z,17.40
2022-12-04T19:30:51.062Z,18.30
2022-12-04T19:32:54.040Z,16.27
2022-12-04T19:34:56.892Z,16.80
2022-12-04T19:36:59.795Z,15.60
2022-12-04T19:39:03.454Z,17.90
2022-12-04T19:41:10.129Z,15.13
2022-12-04T19:43:14.392Z,17.10
2022-12-04T19:45:17.516Z,16.87
2022-12-04T19:47:20.551Z,16.13
2022-12-04T19:49:23.541Z,15.37
2022-12-04T19:51:26.979Z,16.40
2022-12-04T19:53:29.860Z,16.03
2022-12-04T19:55:32.836Z,16.60
2022-12-04T19:57:36.274Z,16.63
2022-12-04T19:59:45.670Z,15.77
2022-12-04T20:01:49.383Z,17.53
2022-12-04T20:03:52.447Z,14.03
2022-12-04T20:05:55.392Z,14.60
2022-12-04T20:10:00.365Z,20.13
2022-12-04T20:12:03.791Z,15.00
2022-12-04T20:14:07.706Z,14.27
2022-12-04T20:16:19.582Z,13.63
2022-12-04T20:18:22.622Z,14.73
2022-12-04T20:20:25.490Z,16.50
2022-12-04T20:22:28.350Z,13.77
2022-12-04T20:24:31.253Z,12.80
2022-12-04T20:26:38.149Z,12.57
2022-12-04T20:28:41.463Z,12.57
2022-12-04T20:30:44.800Z,13.37
2022-12-04T20:32:49.132Z,12.50
2022-12-04T20:34:52.062Z,13.17
2022-12-04T20:36:55.076Z,13.10
2022-12-04T20:38:59.385Z,12.30
2022-12-04T20:41:03.597Z,12.97
2022-12-04T20:43:06.820Z,12.47
2022-12-04T20:45:10.997Z,12.20
2022-12-04T20:47:14.029Z,12.13
2022-12-04T20:49:22.534Z,13.07
2022-12-04T20:51:27.621Z,13.67
2022-12-04T20:53:30.552Z,13.67
2022-12-04T20:55:33.436Z,14.57
2022-12-04T20:57:37.447Z,13.33
2022-12-04T20:59:40.500Z,13.77
2022-12-04T21:01:44.260Z,14.60
2022-12-04T21:03:48.028Z,14.50
2022-12-04T21:05:52.272Z,13.87
2022-12-04T21:07:55.535Z,13.97
2022-12-04T21:09:59.719Z,14.13
2022-12-04T21:12:03.037Z,15.20
2022-12-04T21:14:25.448Z,13.17
2022-12-04T21:16:27.485Z,12.90
2022-12-04T21:18:30.438Z,13.97
2022-12-04T21:20:33.503Z,15.70
2022-12-04T21:22:37.842Z,15.57
2022-12-04T21:24:42.280Z,16.37
2022-12-04T21:26:45.750Z,15.03
2022-12-04T21:28:48.653Z,14.87
2022-12-04T21:30:51.703Z,14.53
2022-12-04T21:32:54.625Z,14.00
2022-12-04T21:34:57.746Z,14.00
2022-12-04T21:37:00.651Z,14.40
2022-12-04T21:39:05.115Z,13.77
2022-12-04T21:41:09.624Z,13.17
2022-12-04T21:43:11.507Z,13.83
2022-12-04T21:45:14.363Z,13.83
2022-12-04T21:47:17.294Z,14.10
2022-12-04T21:49:20.900Z,13.93
2022-12-04T21:51:55.172Z,13.77
2022-12-04T21:53:46.624Z,14.33
2022-12-04T21:55:52.661Z,14.07
2022-12-04T21:57:55.538Z,15.57
2022-12-04T21:59:58.730Z,14.33
2022-12-04T22:02:02.280Z,14.47
2022-12-04T22:04:05.583Z,14.03
2022-12-04T22:06:09.006Z,14.13
2022-12-04T22:08:14.186Z,13.73
2022-12-04T22:10:17.310Z,15.67
2022-12-04T22:14:44.520Z,14.93
2022-12-04T22:16:47.440Z,15.83
2022-12-04T22:18:50.456Z,15.00
2022-12-04T22:20:53.448Z,15.97
2022-12-04T22:22:56.364Z,14.20
2022-12-04T22:25:01.438Z,15.07
2022-12-04T22:27:04.874Z,15.40
2022-12-04T22:29:34.283Z,13.87
2022-12-04T22:31:32.913Z,15.63
2022-12-04T22:33:36.527Z,15.43
2022-12-04T22:35:39.404Z,14.50
2022-12-04T22:37:44.506Z,15.90
2022-12-04T22:39:47.699Z,15.40
2022-12-04T22:41:50.601Z,14.73
2022-12-04T22:43:53.649Z,15.50
2022-12-04T22:45:58.427Z,15.47
2022-12-04T22:48:01.356Z,16.23
2022-12-04T22:50:04.542Z,15.83
2022-12-04T22:52:07.426Z,14.23
2022-12-04T22:54:14.524Z,15.53
2022-12-04T22:56:20.204Z,16.03
2022-12-04T22:58:23.784Z,15.00
2022-12-04T23:00:26.684Z,15.97
2022-12-04T23:02:30.981Z,15.87
2022-12-04T23:04:33.908Z,15.40
2022-12-04T23:06:37.485Z,15.10
2022-12-04T23:08:41.431Z,16.37
2022-12-04T23:10:44.236Z,15.20
2022-12-04T23:12:47.126Z,15.63
2022-12-04T23:14:50.232Z,15.93
2022-12-04T23:16:53.182Z,15.93
2022-12-04T23:18:57.686Z,15.77
2022-12-04T23:21:06.155Z,15.00
2022-12-04T23:23:08.992Z,15.47
2022-12-04T23:25:11.922Z,17.57
2022-12-04T23:27:14.774Z,15.47
2022-12-04T23:29:44.797Z,15.53
2022-12-04T23:31:41.007Z,15.37
2022-12-04T23:33:44.010Z,15.43
2022-12-04T23:35:52.398Z,16.07
2022-12-04T23:37:55.314Z,15.47
2022-12-04T23:39:58.551Z,16.43
2022-12-04T23:42:01.642Z,16.47
2022-12-04T23:44:04.803Z,15.87
2022-12-04T23:46:11.537Z,17.03
2022-12-04T23:48:14.678Z,15.97
2022-12-04T23:50:17.642Z,15.07
2022-12-04T23:52:21.961Z,15.97
2022-12-04T23:54:24.806Z,15.60
2022-12-04T23:56:29.263Z,15.60
2022-12-04T23:58:32.561Z,15.30
